sensor_id;sensor_type;location;lat;lon;timestamp;P1;durP1;ratioP1;P2;durP2;ratioP2
72205;SDS011;60111;48.286;7.812;2023-02-17T00:01:31;9.18;;;5.28;;
72205;SDS011;60111;48.286;7.812;2023-02-17T00:04:05;11.05;;;5.40;;
72205;SDS011;60111;48.286;7.812;2023-02-17T00:06:38;7.87;;;5.03;;
72205;SDS011;60111;48.286;7.812;2023-02-17T00:09:11;8.23;;;5.17;;
72205;SDS011;60111;48.286;7.812;2023-02-17T00:11:43;10.38;;;5.08;;
72205;SDS011;60111;48.286;7.812;2023-02-17T00:14:16;6.92;;;4.90;;
72205;SDS011;60111;48.286;7.812;2023-02-17T00:16:49;11.38;;;4.85;;
72205;SDS011;60111;48.286;7.812;2023-02-17T00:19:22;8.28;;;5.20;;
72205;SDS011;60111;48.286;7.812;2023-02-17T00:21:59;7.90;;;5.23;;
72205;SDS011;60111;48.286;7.812;2023-02-17T00:24:30;7.95;;;5.28;;
72205;SDS011;60111;48.286;7.812;2023-02-17T00:27:04;8.88;;;5.37;;
72205;SDS011;60111;48.286;7.812;2023-02-17T00:29:37;7.85;;;5.05;;
72205;SDS011;60111;48.286;7.812;2023-02-17T00:32:10;9.95;;;4.55;;
72205;SDS011;60111;48.286;7.812;2023-02-17T00:34:43;9.43;;;4.83;;
72205;SDS011;60111;48.286;7.812;2023-02-17T00:37:15;10.28;;;4.97;;
72205;SDS011;60111;48.286;7.812;2023-02-17T00:39:48;8.70;;;4.87;;
72205;SDS011;60111;48.286;7.812;2023-02-17T00:42:20;8.83;;;4.85;;
72205;SDS011;60111;48.286;7.812;2023-02-17T00:44:53;10.13;;;5.20;;
72205;SDS011;60111;48.286;7.812;2023-02-17T00:47:26;9.78;;;5.08;;
72205;SDS011;60111;48.286;7.812;2023-02-17T00:49:58;7.42;;;4.90;;
72205;SDS011;60111;48.286;7.812;2023-02-17T00:52:31;8.58;;;5.05;;
72205;SDS011;60111;48.286;7.812;2023-02-17T00:55:03;6.90;;;4.37;;
72205;SDS011;60111;48.286;7.812;2023-02-17T00:57:36;8.95;;;5.35;;
72205;SDS011;60111;48.286;7.812;2023-02-17T01:00:09;7.37;;;5.15;;
72205;SDS011;60111;48.286;7.812;2023-02-17T01:02:42;7.75;;;4.90;;
72205;SDS011;60111;48.286;7.812;2023-02-17T01:05:14;11.63;;;5.15;;
72205;SDS011;60111;48.286;7.812;2023-02-17T01:07:47;9.68;;;5.03;;
72205;SDS011;60111;48.286;7.812;2023-02-17T01:10:19;9.57;;;5.10;;
72205;SDS011;60111;48.286;7.812;2023-02-17T01:12:52;6.22;;;4.70;;
72205;SDS011;60111;48.286;7.812;2023-02-17T01:15:24;10.28;;;5.25;;
72205;SDS011;60111;48.286;7.812;2023-02-17T01:17:57;9.18;;;5.05;;
72205;SDS011;60111;48.286;7.812;2023-02-17T01:20:30;9.68;;;5.37;;
72205;SDS011;60111;48.286;7.812;2023-02-17T01:23:08;10.25;;;5.35;;
72205;SDS011;60111;48.286;7.812;2023-02-17T01:25:43;11.20;;;5.53;;
72205;SDS011;60111;48.286;7.812;2023-02-17T01:28:18;13.73;;;5.40;;
72205;SDS011;60111;48.286;7.812;2023-02-17T01:30:51;9.37;;;5.40;;
72205;SDS011;60111;48.286;7.812;2023-02-17T01:33:24;8.03;;;5.05;;
72205;SDS011;60111;48.286;7.812;2023-02-17T01:36:01;9.07;;;5.57;;
72205;SDS011;60111;48.286;7.812;2023-02-17T01:38:35;8.00;;;5.45;;
72205;SDS011;60111;48.286;7.812;2023-02-17T01:41:08;7.37;;;5.10;;
72205;SDS011;60111;48.286;7.812;2023-02-17T01:43:41;7.70;;;4.67;;
72205;SDS011;60111;48.286;7.812;2023-02-17T01:48:47;10.53;;;4.62;;
72205;SDS011;60111;48.286;7.812;2023-02-17T01:51:22;11.57;;;5.20;;
72205;SDS011;60111;48.286;7.812;2023-02-17T01:54:01;10.88;;;4.85;;
72205;SDS011;60111;48.286;7.812;2023-02-17T01:56:38;9.85;;;5.50;;
72205;SDS011;60111;48.286;7.812;2023-02-17T01:59:20;11.40;;;5.45;;
72205;SDS011;60111;48.286;7.812;2023-02-17T02:01:56;5.85;;;4.70;;
72205;SDS011;60111;48.286;7.812;2023-02-17T02:04:31;8.23;;;5.03;;
72205;SDS011;60111;48.286;7.812;2023-02-17T02:07:09;6.92;;;4.60;;
72205;SDS011;60111;48.286;7.812;2023-02-17T02:09:51;7.33;;;4.97;;
72205;SDS011;60111;48.286;7.812;2023-02-17T02:12:27;9.50;;;5.17;;
72205;SDS011;60111;48.286;7.812;2023-02-17T02:15:11;9.43;;;5.30;;
72205;SDS011;60111;48.286;7.812;2023-02-17T02:23:48;12.00;;;5.77;;
72205;SDS011;60111;48.286;7.812;2023-02-17T02:35:25;9.83;;;5.22;;
72205;SDS011;60111;48.286;7.812;2023-02-17T02:38:14;10.93;;;5.65;;
72205;SDS011;60111;48.286;7.812;2023-02-17T02:40:56;9.10;;;5.67;;
72205;SDS011;60111;48.286;7.812;2023-02-17T02:43:30;9.95;;;5.40;;
72205;SDS011;60111;48.286;7.812;2023-02-17T02:46:02;7.92;;;5.45;;
72205;SDS011;60111;48.286;7.812;2023-02-17T02:48:35;11.83;;;5.78;;
72205;SDS011;60111;48.286;7.812;2023-02-17T02:54:15;12.70;;;6.00;;
72205;SDS011;60111;48.286;7.812;2023-02-17T02:57:03;11.45;;;6.22;;
72205;SDS011;60111;48.286;7.812;2023-02-17T02:59:52;8.83;;;5.67;;
72205;SDS011;60111;48.286;7.812;2023-02-17T03:02:50;9.50;;;6.12;;
72205;SDS011;60111;48.286;7.812;2023-02-17T03:05:30;11.48;;;6.08;;
72205;SDS011;60111;48.286;7.812;2023-02-17T03:08:16;13.15;;;6.33;;
72205;SDS011;60111;48.286;7.812;2023-02-17T03:10:51;11.73;;;6.20;;
72205;SDS011;60111;48.286;7.812;2023-02-17T03:13:25;10.32;;;5.78;;
72205;SDS011;60111;48.286;7.812;2023-02-17T03:15:57;9.35;;;5.70;;
72205;SDS011;60111;48.286;7.812;2023-02-17T03:18:33;11.38;;;6.28;;
72205;SDS011;60111;48.286;7.812;2023-02-17T03:21:13;10.20;;;6.10;;
72205;SDS011;60111;48.286;7.812;2023-02-17T03:23:46;12.80;;;6.17;;
72205;SDS011;60111;48.286;7.812;2023-02-17T03:26:19;12.00;;;6.87;;
72205;SDS011;60111;48.286;7.812;2023-02-17T03:28:52;10.65;;;5.80;;
72205;SDS011;60111;48.286;7.812;2023-02-17T03:31:24;12.25;;;5.85;;
72205;SDS011;60111;48.286;7.812;2023-02-17T03:33:57;14.98;;;6.33;;
72205;SDS011;60111;48.286;7.812;2023-02-17T03:36:30;9.73;;;5.70;;
72205;SDS011;60111;48.286;7.812;2023-02-17T03:39:03;12.67;;;5.63;;
72205;SDS011;60111;48.286;7.812;2023-02-17T03:41:35;12.47;;;5.20;;
72205;SDS011;60111;48.286;7.812;2023-02-17T03:44:08;8.18;;;5.35;;
72205;SDS011;60111;48.286;7.812;2023-02-17T03:46:41;13.08;;;5.62;;
72205;SDS011;60111;48.286;7.812;2023-02-17T03:49:13;10.95;;;4.92;;
72205;SDS011;60111;48.286;7.812;2023-02-17T03:51:46;11.33;;;5.40;;
72205;SDS011;60111;48.286;7.812;2023-02-17T03:54:19;11.60;;;5.75;;
72205;SDS011;60111;48.286;7.812;2023-02-17T03:56:51;9.43;;;5.70;;
72205;SDS011;60111;48.286;7.812;2023-02-17T03:59:24;10.23;;;5.30;;
72205;SDS011;60111;48.286;7.812;2023-02-17T04:01:56;9.15;;;5.47;;
72205;SDS011;60111;48.286;7.812;2023-02-17T04:04:29;14.63;;;5.63;;
72205;SDS011;60111;48.286;7.812;2023-02-17T04:07:02;7.65;;;4.80;;
72205;SDS011;60111;48.286;7.812;2023-02-17T04:09:34;10.95;;;5.90;;
72205;SDS011;60111;48.286;7.812;2023-02-17T04:12:07;7.50;;;4.72;;
72205;SDS011;60111;48.286;7.812;2023-02-17T04:14:39;9.95;;;4.80;;
72205;SDS011;60111;48.286;7.812;2023-02-17T04:17:12;10.90;;;5.40;;
72205;SDS011;60111;48.286;7.812;2023-02-17T04:19:44;7.62;;;5.20;;
72205;SDS011;60111;48.286;7.812;2023-02-17T04:22:17;8.00;;;5.27;;
72205;SDS011;60111;48.286;7.812;2023-02-17T04:24:49;8.48;;;5.17;;
72205;SDS011;60111;48.286;7.812;2023-02-17T04:27:22;12.40;;;5.20;;
72205;SDS011;60111;48.286;7.812;2023-02-17T04:29:55;12.25;;;5.20;;
72205;SDS011;60111;48.286;7.812;2023-02-17T04:32:28;8.25;;;4.90;;
72205;SDS011;60111;48.286;7.812;2023-02-17T04:35:00;9.13;;;4.80;;
72205;SDS011;60111;48.286;7.812;2023-02-17T04:37:33;6.85;;;5.10;;
72205;SDS011;60111;48.286;7.812;2023-02-17T04:40:06;9.45;;;4.83;;
72205;SDS011;60111;48.286;7.812;2023-02-17T04:42:40;10.32;;;5.40;;
72205;SDS011;60111;48.286;7.812;2023-02-17T04:45:14;10.15;;;5.28;;
72205;SDS011;60111;48.286;7.812;2023-02-17T04:47:46;8.38;;;4.78;;
72205;SDS011;60111;48.286;7.812;2023-02-17T04:50:19;10.90;;;5.05;;
72205;SDS011;60111;48.286;7.812;2023-02-17T04:52:52;10.55;;;5.15;;
72205;SDS011;60111;48.286;7.812;2023-02-17T04:55:24;11.90;;;5.80;;
72205;SDS011;60111;48.286;7.812;2023-02-17T04:57:57;7.78;;;5.12;;
72205;SDS011;60111;48.286;7.812;2023-02-17T05:00:30;9.33;;;5.40;;
72205;SDS011;60111;48.286;7.812;2023-02-17T05:03:03;26.62;;;12.50;;
72205;SDS011;60111;48.286;7.812;2023-02-17T05:05:35;16.17;;;10.05;;
72205;SDS011;60111;48.286;7.812;2023-02-17T05:08:08;10.82;;;5.50;;
72205;SDS011;60111;48.286;7.812;2023-02-17T05:10:41;13.22;;;6.08;;
72205;SDS011;60111;48.286;7.812;2023-02-17T05:13:14;11.15;;;5.72;;
72205;SDS011;60111;48.286;7.812;2023-02-17T05:15:46;8.65;;;5.55;;
72205;SDS011;60111;48.286;7.812;2023-02-17T05:18:19;9.98;;;5.53;;
72205;SDS011;60111;48.286;7.812;2023-02-17T05:20:52;11.38;;;5.72;;
72205;SDS011;60111;48.286;7.812;2023-02-17T05:23:24;8.70;;;5.50;;
72205;SDS011;60111;48.286;7.812;2023-02-17T05:25:57;10.55;;;5.22;;
72205;SDS011;60111;48.286;7.812;2023-02-17T05:28:29;11.00;;;5.93;;
72205;SDS011;60111;48.286;7.812;2023-02-17T05:31:02;10.85;;;5.70;;
72205;SDS011;60111;48.286;7.812;2023-02-17T05:33:36;10.53;;;5.70;;
72205;SDS011;60111;48.286;7.812;2023-02-17T05:36:09;13.70;;;6.10;;
72205;SDS011;60111;48.286;7.812;2023-02-17T05:38:42;8.25;;;5.53;;
72205;SDS011;60111;48.286;7.812;2023-02-17T05:41:16;7.37;;;5.05;;
72205;SDS011;60111;48.286;7.812;2023-02-17T05:43:49;9.17;;;5.30;;
72205;SDS011;60111;48.286;7.812;2023-02-17T05:46:22;12.07;;;5.17;;
72205;SDS011;60111;48.286;7.812;2023-02-17T05:48:55;9.03;;;5.40;;
72205;SDS011;60111;48.286;7.812;2023-02-17T05:51:27;8.95;;;6.00;;
72205;SDS011;60111;48.286;7.812;2023-02-17T05:54:00;7.65;;;5.35;;
72205;SDS011;60111;48.286;7.812;2023-02-17T05:56:32;10.18;;;5.45;;
72205;SDS011;60111;48.286;7.812;2023-02-17T05:59:05;9.05;;;5.08;;
72205;SDS011;60111;48.286;7.812;2023-02-17T06:01:37;8.00;;;4.70;;
72205;SDS011;60111;48.286;7.812;2023-02-17T06:04:10;8.45;;;4.87;;
72205;SDS011;60111;48.286;7.812;2023-02-17T06:06:42;7.67;;;5.25;;
72205;SDS011;60111;48.286;7.812;2023-02-17T06:09:15;9.00;;;4.97;;
72205;SDS011;60111;48.286;7.812;2023-02-17T06:14:39;7.37;;;5.00;;
72205;SDS011;60111;48.286;7.812;2023-02-17T06:17:12;8.28;;;4.62;;
72205;SDS011;60111;48.286;7.812;2023-02-17T06:19:45;7.12;;;4.80;;
72205;SDS011;60111;48.286;7.812;2023-02-17T06:22:17;6.67;;;4.65;;
72205;SDS011;60111;48.286;7.812;2023-02-17T06:24:50;10.65;;;5.03;;
72205;SDS011;60111;48.286;7.812;2023-02-17T06:27:22;8.15;;;4.67;;
72205;SDS011;60111;48.286;7.812;2023-02-17T06:29:55;8.30;;;4.47;;
72205;SDS011;60111;48.286;7.812;2023-02-17T06:32:28;9.20;;;4.33;;
72205;SDS011;60111;48.286;7.812;2023-02-17T06:35:00;8.10;;;4.42;;
72205;SDS011;60111;48.286;7.812;2023-02-17T06:37:33;6.50;;;4.00;;
72205;SDS011;60111;48.286;7.812;2023-02-17T06:40:06;5.10;;;3.90;;
72205;SDS011;60111;48.286;7.812;2023-02-17T06:42:39;7.28;;;4.28;;
72205;SDS011;60111;48.286;7.812;2023-02-17T06:45:11;11.05;;;4.40;;
72205;SDS011;60111;48.286;7.812;2023-02-17T06:47:44;10.90;;;4.85;;
72205;SDS011;60111;48.286;7.812;2023-02-17T06:50:17;12.10;;;4.63;;
72205;SDS011;60111;48.286;7.812;2023-02-17T06:52:51;9.97;;;4.50;;
72205;SDS011;60111;48.286;7.812;2023-02-17T06:55:23;7.73;;;4.70;;
72205;SDS011;60111;48.286;7.812;2023-02-17T06:57:56;8.95;;;4.87;;
72205;SDS011;60111;48.286;7.812;2023-02-17T07:00:29;10.40;;;4.87;;
72205;SDS011;60111;48.286;7.812;2023-02-17T07:03:01;7.10;;;4.65;;
72205;SDS011;60111;48.286;7.812;2023-02-17T07:05:35;7.65;;;4.95;;
72205;SDS011;60111;48.286;7.812;2023-02-17T07:08:09;9.55;;;4.92;;
72205;SDS011;60111;48.286;7.812;2023-02-17T07:10:42;8.58;;;4.83;;
72205;SDS011;60111;48.286;7.812;2023-02-17T07:13:14;7.85;;;4.87;;
72205;SDS011;60111;48.286;7.812;2023-02-17T07:15:47;8.25;;;5.33;;
72205;SDS011;60111;48.286;7.812;2023-02-17T07:18:20;12.17;;;5.27;;
72205;SDS011;60111;48.286;7.812;2023-02-17T07:20:52;9.78;;;4.30;;
72205;SDS011;60111;48.286;7.812;2023-02-17T07:23:25;12.00;;;5.28;;
72205;SDS011;60111;48.286;7.812;2023-02-17T07:26:05;12.37;;;5.03;;
72205;SDS011;60111;48.286;7.812;2023-02-17T07:28:42;8.88;;;4.55;;
72205;SDS011;60111;48.286;7.812;2023-02-17T07:31:15;7.67;;;4.72;;
72205;SDS011;60111;48.286;7.812;2023-02-17T07:33:48;9.33;;;5.35;;
72205;SDS011;60111;48.286;7.812;2023-02-17T07:36:21;9.48;;;5.65;;
72205;SDS011;60111;48.286;7.812;2023-02-17T07:38:53;9.75;;;5.03;;
72205;SDS011;60111;48.286;7.812;2023-02-17T07:41:26;9.08;;;4.53;;
72205;SDS011;60111;48.286;7.812;2023-02-17T07:46:32;7.40;;;5.20;;
72205;SDS011;60111;48.286;7.812;2023-02-17T07:49:04;8.90;;;4.58;;
72205;SDS011;60111;48.286;7.812;2023-02-17T07:51:37;9.58;;;5.30;;
72205;SDS011;60111;48.286;7.812;2023-02-17T07:54:10;9.45;;;5.08;;
72205;SDS011;60111;48.286;7.812;2023-02-17T07:56:43;9.20;;;4.97;;
72205;SDS011;60111;48.286;7.812;2023-02-17T07:59:17;9.30;;;5.33;;
72205;SDS011;60111;48.286;7.812;2023-02-17T08:01:49;8.28;;;5.08;;
72205;SDS011;60111;48.286;7.812;2023-02-17T08:04:22;10.65;;;5.20;;
72205;SDS011;60111;48.286;7.812;2023-02-17T08:06:54;8.43;;;5.25;;
72205;SDS011;60111;48.286;7.812;2023-02-17T08:09:27;11.80;;;5.08;;
72205;SDS011;60111;48.286;7.812;2023-02-17T08:12:18;8.58;;;5.30;;
72205;SDS011;60111;48.286;7.812;2023-02-17T08:15:09;7.92;;;5.12;;
72205;SDS011;60111;48.286;7.812;2023-02-17T08:17:42;15.08;;;6.28;;
72205;SDS011;60111;48.286;7.812;2023-02-17T08:20:15;14.98;;;5.55;;
72205;SDS011;60111;48.286;7.812;2023-02-17T08:22:47;11.08;;;6.10;;
72205;SDS011;60111;48.286;7.812;2023-02-17T08:25:20;11.10;;;5.70;;
72205;SDS011;60111;48.286;7.812;2023-02-17T08:27:52;13.08;;;5.95;;
72205;SDS011;60111;48.286;7.812;2023-02-17T08:30:25;10.50;;;6.00;;
72205;SDS011;60111;48.286;7.812;2023-02-17T08:32:58;12.58;;;6.80;;
72205;SDS011;60111;48.286;7.812;2023-02-17T08:35:30;14.85;;;6.20;;
72205;SDS011;60111;48.286;7.812;2023-02-17T08:38:03;13.10;;;6.37;;
72205;SDS011;60111;48.286;7.812;2023-02-17T08:40:36;9.80;;;5.90;;
72205;SDS011;60111;48.286;7.812;2023-02-17T08:43:09;10.68;;;5.37;;
72205;SDS011;60111;48.286;7.812;2023-02-17T08:45:42;6.78;;;5.03;;
72205;SDS011;60111;48.286;7.812;2023-02-17T08:48:14;11.53;;;4.90;;
72205;SDS011;60111;48.286;7.812;2023-02-17T08:50:47;11.08;;;5.58;;
72205;SDS011;60111;48.286;7.812;2023-02-17T08:53:20;8.25;;;5.17;;
72205;SDS011;60111;48.286;7.812;2023-02-17T08:55:52;8.53;;;5.05;;
72205;SDS011;60111;48.286;7.812;2023-02-17T08:58:25;11.80;;;5.53;;
72205;SDS011;60111;48.286;7.812;2023-02-17T09:00:58;7.40;;;4.50;;
72205;SDS011;60111;48.286;7.812;2023-02-17T09:03:32;7.22;;;4.58;;
72205;SDS011;60111;48.286;7.812;2023-02-17T09:08:37;8.30;;;5.28;;
72205;SDS011;60111;48.286;7.812;2023-02-17T09:11:11;10.15;;;5.60;;
72205;SDS011;60111;48.286;7.812;2023-02-17T09:13:46;8.73;;;5.22;;
72205;SDS011;60111;48.286;7.812;2023-02-17T09:16:19;9.68;;;5.75;;
72205;SDS011;60111;48.286;7.812;2023-02-17T09:18:53;9.08;;;6.08;;
72205;SDS011;60111;48.286;7.812;2023-02-17T09:21:26;9.35;;;5.03;;
72205;SDS011;60111;48.286;7.812;2023-02-17T09:23:58;8.67;;;5.13;;
72205;SDS011;60111;48.286;7.812;2023-02-17T09:26:31;7.70;;;5.37;;
72205;SDS011;60111;48.286;7.812;2023-02-17T09:29:05;8.80;;;6.37;;
72205;SDS011;60111;48.286;7.812;2023-02-17T09:31:38;12.07;;;6.03;;
72205;SDS011;60111;48.286;7.812;2023-02-17T09:34:10;8.28;;;5.75;;
72205;SDS011;60111;48.286;7.812;2023-02-17T09:36:43;8.98;;;5.53;;
72205;SDS011;60111;48.286;7.812;2023-02-17T09:39:15;13.48;;;6.55;;
72205;SDS011;60111;48.286;7.812;2023-02-17T09:41:49;9.53;;;6.78;;
72205;SDS011;60111;48.286;7.812;2023-02-17T09:47:16;11.43;;;6.60;;
72205;SDS011;60111;48.286;7.812;2023-02-17T09:49:56;10.82;;;6.65;;
72205;SDS011;60111;48.286;7.812;2023-02-17T09:52:37;8.97;;;5.93;;
72205;SDS011;60111;48.286;7.812;2023-02-17T09:55:15;8.65;;;5.42;;
72205;SDS011;60111;48.286;7.812;2023-02-17T09:57:57;10.03;;;6.05;;
72205;SDS011;60111;48.286;7.812;2023-02-17T10:00:37;10.20;;;5.75;;
72205;SDS011;60111;48.286;7.812;2023-02-17T10:03:22;9.20;;;5.78;;
72205;SDS011;60111;48.286;7.812;2023-02-17T10:06:04;7.08;;;5.62;;
72205;SDS011;60111;48.286;7.812;2023-02-17T10:08:41;9.35;;;5.83;;
72205;SDS011;60111;48.286;7.812;2023-02-17T10:11:18;7.78;;;5.65;;
72205;SDS011;60111;48.286;7.812;2023-02-17T10:13:51;6.87;;;5.40;;
72205;SDS011;60111;48.286;7.812;2023-02-17T10:16:27;8.08;;;5.08;;
72205;SDS011;60111;48.286;7.812;2023-02-17T10:19:04;9.17;;;5.30;;
72205;SDS011;60111;48.286;7.812;2023-02-17T10:21:38;9.43;;;5.83;;
72205;SDS011;60111;48.286;7.812;2023-02-17T10:24:18;8.93;;;5.55;;
72205;SDS011;60111;48.286;7.812;2023-02-17T10:32:44;7.58;;;5.00;;
72205;SDS011;60111;48.286;7.812;2023-02-17T10:35:16;11.73;;;6.05;;
72205;SDS011;60111;48.286;7.812;2023-02-17T10:40:45;8.20;;;5.12;;
72205;SDS011;60111;48.286;7.812;2023-02-17T10:43:21;10.20;;;5.37;;
72205;SDS011;60111;48.286;7.812;2023-02-17T10:45:56;9.27;;;6.63;;
72205;SDS011;60111;48.286;7.812;2023-02-17T10:51:17;9.35;;;5.37;;
72205;SDS011;60111;48.286;7.812;2023-02-17T10:53:47;12.93;;;6.00;;
72205;SDS011;60111;48.286;7.812;2023-02-17T10:56:38;8.23;;;5.30;;
72205;SDS011;60111;48.286;7.812;2023-02-17T11:02:11;9.33;;;5.55;;
72205;SDS011;60111;48.286;7.812;2023-02-17T11:04:48;11.43;;;5.05;;
72205;SDS011;60111;48.286;7.812;2023-02-17T11:07:32;9.93;;;5.20;;
72205;SDS011;60111;48.286;7.812;2023-02-17T11:10:21;9.83;;;6.15;;
72205;SDS011;60111;48.286;7.812;2023-02-17T11:13:00;14.83;;;7.60;;
72205;SDS011;60111;48.286;7.812;2023-02-17T11:15:35;17.75;;;6.75;;
72205;SDS011;60111;48.286;7.812;2023-02-17T11:18:11;12.47;;;6.72;;
72205;SDS011;60111;48.286;7.812;2023-02-17T11:20:58;12.45;;;7.10;;
72205;SDS011;60111;48.286;7.812;2023-02-17T11:23:45;20.57;;;8.75;;
72205;SDS011;60111;48.286;7.812;2023-02-17T11:26:21;13.72;;;6.75;;
72205;SDS011;60111;48.286;7.812;2023-02-17T11:34:40;15.67;;;6.50;;
72205;SDS011;60111;48.286;7.812;2023-02-17T11:37:22;11.48;;;6.62;;
72205;SDS011;60111;48.286;7.812;2023-02-17T11:39:54;12.80;;;5.47;;
72205;SDS011;60111;48.286;7.812;2023-02-17T11:42:28;11.08;;;6.12;;
72205;SDS011;60111;48.286;7.812;2023-02-17T11:45:10;13.22;;;5.50;;
72205;SDS011;60111;48.286;7.812;2023-02-17T11:48:02;13.98;;;5.85;;
72205;SDS011;60111;48.286;7.812;2023-02-17T11:50:46;16.67;;;5.97;;
72205;SDS011;60111;48.286;7.812;2023-02-17T11:53:25;13.72;;;5.60;;
72205;SDS011;60111;48.286;7.812;2023-02-17T11:59:06;7.83;;;4.90;;
72205;SDS011;60111;48.286;7.812;2023-02-17T12:01:55;10.90;;;5.08;;
72205;SDS011;60111;48.286;7.812;2023-02-17T12:05:18;9.63;;;4.97;;
72205;SDS011;60111;48.286;7.812;2023-02-17T12:10:02;9.38;;;5.58;;
72205;SDS011;60111;48.286;7.812;2023-02-17T12:12:57;7.58;;;4.67;;
72205;SDS011;60111;48.286;7.812;2023-02-17T12:18:36;8.15;;;4.50;;
72205;SDS011;60111;48.286;7.812;2023-02-17T12:21:27;11.85;;;5.10;;
72205;SDS011;60111;48.286;7.812;2023-02-17T12:24:30;8.48;;;4.75;;
72205;SDS011;60111;48.286;7.812;2023-02-17T12:30:32;8.30;;;4.50;;
72205;SDS011;60111;48.286;7.812;2023-02-17T12:36:02;9.38;;;5.22;;
72205;SDS011;60111;48.286;7.812;2023-02-17T12:38:44;10.40;;;5.15;;
72205;SDS011;60111;48.286;7.812;2023-02-17T12:41:34;10.25;;;6.25;;
72205;SDS011;60111;48.286;7.812;2023-02-17T12:44:12;9.13;;;4.73;;
72205;SDS011;60111;48.286;7.812;2023-02-17T12:46:50;8.78;;;4.87;;
72205;SDS011;60111;48.286;7.812;2023-02-17T12:52:11;9.70;;;4.40;;
72205;SDS011;60111;48.286;7.812;2023-02-17T12:54:53;8.68;;;4.92;;
72205;SDS011;60111;48.286;7.812;2023-02-17T12:57:28;9.58;;;5.28;;
72205;SDS011;60111;48.286;7.812;2023-02-17T13:02:58;8.93;;;4.80;;
72205;SDS011;60111;48.286;7.812;2023-02-17T13:08:24;9.23;;;4.70;;
72205;SDS011;60111;48.286;7.812;2023-02-17T13:11:05;11.93;;;5.60;;
72205;SDS011;60111;48.286;7.812;2023-02-17T13:13:40;12.05;;;4.53;;
72205;SDS011;60111;48.286;7.812;2023-02-17T13:16:13;11.75;;;4.75;;
72205;SDS011;60111;48.286;7.812;2023-02-17T13:18:47;8.85;;;4.03;;
72205;SDS011;60111;48.286;7.812;2023-02-17T13:24:01;8.23;;;4.30;;
72205;SDS011;60111;48.286;7.812;2023-02-17T13:26:37;8.95;;;4.33;;
72205;SDS011;60111;48.286;7.812;2023-02-17T13:32:09;8.03;;;3.80;;
72205;SDS011;60111;48.286;7.812;2023-02-17T13:34:43;8.52;;;4.18;;
72205;SDS011;60111;48.286;7.812;2023-02-17T13:37:22;6.20;;;3.87;;
72205;SDS011;60111;48.286;7.812;2023-02-17T13:40:07;8.08;;;4.10;;
72205;SDS011;60111;48.286;7.812;2023-02-17T13:42:49;10.00;;;3.80;;
72205;SDS011;60111;48.286;7.812;2023-02-17T13:45:38;7.58;;;4.28;;
72205;SDS011;60111;48.286;7.812;2023-02-17T13:48:26;7.67;;;4.85;;
72205;SDS011;60111;48.286;7.812;2023-02-17T13:51:01;14.87;;;6.80;;
72205;SDS011;60111;48.286;7.812;2023-02-17T13:53:36;11.60;;;6.07;;
72205;SDS011;60111;48.286;7.812;2023-02-17T13:56:11;10.00;;;5.80;;
72205;SDS011;60111;48.286;7.812;2023-02-17T13:59:12;11.65;;;5.12;;
72205;SDS011;60111;48.286;7.812;2023-02-17T14:01:48;7.75;;;4.95;;
72205;SDS011;60111;48.286;7.812;2023-02-17T14:04:27;7.83;;;4.50;;
72205;SDS011;60111;48.286;7.812;2023-02-17T14:07:02;5.78;;;4.20;;
72205;SDS011;60111;48.286;7.812;2023-02-17T14:09:36;6.15;;;3.90;;
72205;SDS011;60111;48.286;7.812;2023-02-17T14:12:11;7.28;;;4.60;;
72205;SDS011;60111;48.286;7.812;2023-02-17T14:14:44;6.03;;;3.77;;
72205;SDS011;60111;48.286;7.812;2023-02-17T14:17:27;5.08;;;2.95;;
72205;SDS011;60111;48.286;7.812;2023-02-17T14:20:02;7.95;;;3.40;;
72205;SDS011;60111;48.286;7.812;2023-02-17T14:22:36;7.47;;;3.62;;
72205;SDS011;60111;48.286;7.812;2023-02-17T14:25:12;4.90;;;3.00;;
72205;SDS011;60111;48.286;7.812;2023-02-17T14:27:47;4.45;;;3.02;;
72205;SDS011;60111;48.286;7.812;2023-02-17T14:30:28;5.87;;;3.50;;
72205;SDS011;60111;48.286;7.812;2023-02-17T14:33:15;6.60;;;3.17;;
72205;SDS011;60111;48.286;7.812;2023-02-17T14:35:51;5.15;;;2.77;;
72205;SDS011;60111;48.286;7.812;2023-02-17T14:38:27;3.40;;;2.58;;
72205;SDS011;60111;48.286;7.812;2023-02-17T14:41:06;3.87;;;2.50;;
72205;SDS011;60111;48.286;7.812;2023-02-17T14:43:39;2.40;;;2.10;;
72205;SDS011;60111;48.286;7.812;2023-02-17T14:46:13;3.15;;;2.37;;
72205;SDS011;60111;48.286;7.812;2023-02-17T14:48:48;5.65;;;2.60;;
72205;SDS011;60111;48.286;7.812;2023-02-17T14:53:54;5.10;;;2.60;;
72205;SDS011;60111;48.286;7.812;2023-02-17T14:59:03;4.65;;;2.70;;
72205;SDS011;60111;48.286;7.812;2023-02-17T15:01:35;7.17;;;3.58;;
72205;SDS011;60111;48.286;7.812;2023-02-17T15:04:08;8.25;;;5.53;;
72205;SDS011;60111;48.286;7.812;2023-02-17T15:06:44;6.20;;;3.58;;
72205;SDS011;60111;48.286;7.812;2023-02-17T15:09:29;5.55;;;2.65;;
72205;SDS011;60111;48.286;7.812;2023-02-17T15:12:02;7.53;;;2.72;;
72205;SDS011;60111;48.286;7.812;2023-02-17T15:14:38;4.87;;;2.50;;
72205;SDS011;60111;48.286;7.812;2023-02-17T15:17:11;4.25;;;2.75;;
72205;SDS011;60111;48.286;7.812;2023-02-17T15:19:44;5.37;;;2.57;;
72205;SDS011;60111;48.286;7.812;2023-02-17T15:22:16;7.58;;;2.58;;
72205;SDS011;60111;48.286;7.812;2023-02-17T15:24:49;6.95;;;2.58;;
72205;SDS011;60111;48.286;7.812;2023-02-17T15:27:22;6.78;;;2.55;;
72205;SDS011;60111;48.286;7.812;2023-02-17T15:29:55;4.37;;;2.60;;
72205;SDS011;60111;48.286;7.812;2023-02-17T15:32:27;5.83;;;3.10;;
72205;SDS011;60111;48.286;7.812;2023-02-17T15:35:00;4.85;;;3.42;;
72205;SDS011;60111;48.286;7.812;2023-02-17T15:37:33;3.70;;;2.70;;
72205;SDS011;60111;48.286;7.812;2023-02-17T15:40:06;3.25;;;2.50;;
72205;SDS011;60111;48.286;7.812;2023-02-17T15:42:40;9.35;;;2.90;;
72205;SDS011;60111;48.286;7.812;2023-02-17T15:45:15;3.42;;;2.55;;
72205;SDS011;60111;48.286;7.812;2023-02-17T15:47:50;5.63;;;2.73;;
72205;SDS011;60111;48.286;7.812;2023-02-17T15:50:25;6.22;;;2.83;;
72205;SDS011;60111;48.286;7.812;2023-02-17T15:52:57;5.40;;;2.63;;
72205;SDS011;60111;48.286;7.812;2023-02-17T15:55:30;4.00;;;3.12;;
72205;SDS011;60111;48.286;7.812;2023-02-17T15:58:04;3.93;;;2.90;;
72205;SDS011;60111;48.286;7.812;2023-02-17T16:00:40;4.25;;;2.50;;
72205;SDS011;60111;48.286;7.812;2023-02-17T16:03:15;5.17;;;2.72;;
72205;SDS011;60111;48.286;7.812;2023-02-17T16:05:48;4.03;;;2.60;;
72205;SDS011;60111;48.286;7.812;2023-02-17T16:08:21;5.10;;;2.98;;
72205;SDS011;60111;48.286;7.812;2023-02-17T16:10:53;4.35;;;3.17;;
72205;SDS011;60111;48.286;7.812;2023-02-17T16:13:26;4.93;;;2.50;;
72205;SDS011;60111;48.286;7.812;2023-02-17T16:15:59;7.83;;;4.40;;
72205;SDS011;60111;48.286;7.812;2023-02-17T16:18:32;5.70;;;3.47;;
72205;SDS011;60111;48.286;7.812;2023-02-17T16:21:04;5.08;;;2.80;;
72205;SDS011;60111;48.286;7.812;2023-02-17T16:23:37;5.70;;;3.30;;
72205;SDS011;60111;48.286;7.812;2023-02-17T16:26:15;5.50;;;3.10;;
72205;SDS011;60111;48.286;7.812;2023-02-17T16:29:00;6.25;;;3.10;;
72205;SDS011;60111;48.286;7.812;2023-02-17T16:31:34;5.53;;;3.00;;
72205;SDS011;60111;48.286;7.812;2023-02-17T16:34:11;6.70;;;3.10;;
72205;SDS011;60111;48.286;7.812;2023-02-17T16:36:45;5.33;;;3.30;;
72205;SDS011;60111;48.286;7.812;2023-02-17T16:39:20;5.50;;;3.50;;
72205;SDS011;60111;48.286;7.812;2023-02-17T16:41:53;4.50;;;3.05;;
72205;SDS011;60111;48.286;7.812;2023-02-17T16:44:25;4.47;;;3.10;;
72205;SDS011;60111;48.286;7.812;2023-02-17T16:46:58;4.03;;;2.92;;
72205;SDS011;60111;48.286;7.812;2023-02-17T16:49:33;5.20;;;3.10;;
72205;SDS011;60111;48.286;7.812;2023-02-17T16:52:43;5.03;;;3.67;;
72205;SDS011;60111;48.286;7.812;2023-02-17T16:54:56;4.50;;;3.37;;
72205;SDS011;60111;48.286;7.812;2023-02-17T16:57:29;5.00;;;3.30;;